createdAt,value
2019-04-03T00:00:49.785Z,99578.81
2019-04-03T00:03:15.823Z,99578.30
2019-04-03T00:05:42.179Z,99584.78
2019-04-03T00:08:08.526Z,99580.45
2019-04-03T00:10:37.374Z,99581.36
2019-04-03T00:13:04.544Z,99580.77
2019-04-03T00:15:31.211Z,99590.69
2019-04-03T00:17:57.317Z,99587.34
2019-04-03T00:20:23.767Z,99584.67
2019-04-03T00:22:51.916Z,99581.64
2019-04-03T00:25:18.205Z,99594.14
2019-04-03T00:27:44.504Z,99592.02
2019-04-03T00:30:12.112Z,99591.50
2019-04-03T00:32:38.215Z,99588.83
2019-04-03T00:35:05.674Z,99586.27
2019-04-03T00:37:33.519Z,99583.68
2019-04-03T00:39:59.961Z,99580.17
2019-04-03T00:42:26.085Z,99584.50
2019-04-03T00:44:52.747Z,99589.25
2019-04-03T00:47:20.291Z,99581.03
2019-04-03T00:49:46.492Z,99587.88
2019-04-03T00:52:12.730Z,99591.34
2019-04-03T00:54:38.838Z,99593.89
2019-04-03T00:57:04.978Z,99585.32
2019-04-03T00:59:31.088Z,99586.14
2019-04-03T01:01:57.221Z,99582.69
2019-04-03T01:04:23.580Z,99580.91
2019-04-03T01:06:50.004Z,99581.38
2019-04-03T01:09:16.207Z,99574.77
2019-04-03T01:11:42.523Z,99571.23
2019-04-03T01:14:08.873Z,99573.87
2019-04-03T01:16:35.225Z,99576.41
2019-04-03T01:19:01.426Z,99570.45
2019-04-03T01:21:28.832Z,99576.54
2019-04-03T01:23:55.051Z,99580.34
2019-04-03T01:26:21.379Z,99567.30
2019-04-03T01:28:47.759Z,99561.67
2019-04-03T01:31:14.872Z,99556.74
2019-04-03T01:33:41.714Z,99561.67
2019-04-03T01:36:08.009Z,99554.02
2019-04-03T01:38:34.216Z,99551.90
2019-04-03T01:41:00.494Z,99547.09
2019-04-03T01:43:26.706Z,99546.67
2019-04-03T01:45:53.158Z,99549.30
2019-04-03T01:48:19.584Z,99549.94
2019-04-03T01:50:46.147Z,99546.56
2019-04-03T01:53:12.368Z,99534.38
2019-04-03T01:55:38.707Z,99535.16
2019-04-03T01:58:06.736Z,99535.73
2019-04-03T02:00:33.108Z,99536.30
2019-04-03T02:03:01.757Z,99529.15
2019-04-03T02:05:27.466Z,99530.97
2019-04-03T02:07:53.904Z,99536.49
2019-04-03T02:10:21.667Z,99532.66
2019-04-03T02:12:50.388Z,99530.84
2019-04-03T02:15:16.192Z,99524.55
2019-04-03T02:17:42.623Z,99523.20
2019-04-03T02:20:09.055Z,99523.97
2019-04-03T02:22:35.487Z,99522.32
2019-04-03T02:25:02.197Z,99525.17
2019-04-03T02:27:29.999Z,99529.10
2019-04-03T02:29:56.314Z,99532.41
2019-04-03T02:32:24.168Z,99527.48
2019-04-03T02:34:50.695Z,99526.85
2019-04-03T02:37:17.627Z,99518.89
2019-04-03T02:39:44.019Z,99523.06
2019-04-03T02:42:10.490Z,99520.14
2019-04-03T02:44:37.102Z,99510.68
2019-04-03T02:47:03.409Z,99511.12
2019-04-03T02:49:29.728Z,99511.92
2019-04-03T02:51:56.060Z,99506.22
2019-04-03T02:54:29.771Z,99500.27
2019-04-03T02:56:57.167Z,99504.64
2019-04-03T02:59:25.975Z,99500.13
2019-04-03T03:01:51.920Z,99507.91
2019-04-03T03:04:20.452Z,99506.97
2019-04-03T03:06:46.798Z,99503.22
2019-04-03T03:09:14.572Z,99507.47
2019-04-03T03:11:40.979Z,99509.91
2019-04-03T03:14:08.241Z,99519.59
2019-04-03T03:16:35.098Z,99519.00
2019-04-03T03:19:01.835Z,99520.42
2019-04-03T03:21:29.507Z,99512.59
2019-04-03T03:23:57.142Z,99523.19
2019-04-03T03:26:23.719Z,99525.78
2019-04-03T03:28:50.196Z,99521.94
2019-04-03T03:31:16.510Z,99522.33
2019-04-03T03:33:43.751Z,99521.55
2019-04-03T03:36:18.486Z,99516.02
2019-04-03T03:38:40.433Z,99520.77
2019-04-03T03:41:07.367Z,99506.72
2019-04-03T03:43:37.077Z,99508.18
2019-04-03T03:46:02.170Z,99516.95
2019-04-03T03:48:28.682Z,99513.45
2019-04-03T03:50:57.524Z,99514.31
2019-04-03T03:53:23.602Z,99516.09
2019-04-03T03:55:50.241Z,99514.67
2019-04-03T03:58:17.946Z,99508.81
2019-04-03T04:00:44.474Z,99521.36
2019-04-03T04:03:12.053Z,99516.87
2019-04-03T04:05:38.415Z,99516.52
2019-04-03T04:08:09.316Z,99522.19
2019-04-03T04:10:37.119Z,99529.77
2019-04-03T04:13:03.770Z,99516.75
2019-04-03T04:15:31.872Z,99521.89
2019-04-03T04:17:58.262Z,99522.33
2019-04-03T04:20:24.578Z,99518.48
2019-04-03T04:22:51.542Z,99514.67
2019-04-03T04:25:18.064Z,99503.83
2019-04-03T04:27:44.567Z,99509.21
2019-04-03T04:30:14.494Z,99504.92
2019-04-03T04:32:41.244Z,99503.20
2019-04-03T04:35:10.358Z,99511.92
2019-04-03T04:37:35.640Z,99514.71
2019-04-03T04:40:02.235Z,99527.06
2019-04-03T04:42:28.580Z,99529.18
2019-04-03T04:44:54.708Z,99522.45
2019-04-03T04:47:20.937Z,99527.69
2019-04-03T04:49:47.287Z,99516.01
2019-04-03T04:52:13.661Z,99513.72
2019-04-03T04:54:42.798Z,99509.83
2019-04-03T04:57:09.264Z,99521.20
2019-04-03T04:59:36.996Z,99520.80
2019-04-03T05:02:03.681Z,99522.06
2019-04-03T05:04:30.073Z,99511.01
2019-04-03T05:06:56.267Z,99527.25
2019-04-03T05:09:22.516Z,99528.16
2019-04-03T05:11:48.642Z,99530.72
2019-04-03T05:14:15.805Z,99530.63
2019-04-03T05:16:43.404Z,99529.77
2019-04-03T05:19:15.875Z,99520.29
2019-04-03T05:21:38.373Z,99529.41
2019-04-03T05:24:12.064Z,99530.84
2019-04-03T05:26:34.037Z,99529.02
2019-04-03T05:29:00.187Z,99529.10
2019-04-03T05:31:26.604Z,99525.72
2019-04-03T05:33:52.759Z,99523.95
2019-04-03T05:36:18.994Z,99529.02
2019-04-03T05:38:45.155Z,99529.41
2019-04-03T05:41:11.753Z,99521.11
2019-04-03T05:43:38.052Z,99520.30
2019-04-03T05:46:05.647Z,99527.69
2019-04-03T05:48:32.496Z,99525.48
2019-04-03T05:50:59.820Z,99526.38
2019-04-03T05:53:26.039Z,99526.51
2019-04-03T05:55:52.275Z,99536.11
2019-04-03T05:58:18.537Z,99537.75
2019-04-03T06:00:44.771Z,99537.99
2019-04-03T06:03:11.074Z,99544.84
2019-04-03T06:05:37.185Z,99547.66
2019-04-03T06:08:03.819Z,99545.50
2019-04-03T06:10:32.473Z,99541.56
2019-04-03T06:12:59.277Z,99544.88
2019-04-03T06:15:25.611Z,99543.14
2019-04-03T06:17:54.266Z,99544.00
2019-04-03T06:20:20.212Z,99535.31
2019-04-03T06:22:47.910Z,99543.33
2019-04-03T06:25:14.576Z,99538.58
2019-04-03T06:27:43.024Z,99543.77
2019-04-03T06:30:09.608Z,99543.92
2019-04-03T06:32:35.941Z,99547.45
2019-04-03T06:35:02.572Z,99551.78
2019-04-03T06:37:29.005Z,99558.20
2019-04-03T06:39:55.204Z,99551.91
2019-04-03T06:42:21.439Z,99548.09
2019-04-03T06:44:47.743Z,99549.30
2019-04-03T06:47:15.780Z,99545.49
2019-04-03T06:49:42.307Z,99550.81
2019-04-03T06:52:08.725Z,99551.76
2019-04-03T06:54:35.217Z,99550.70
2019-04-03T06:57:01.483Z,99539.36
2019-04-03T06:59:27.746Z,99545.24
2019-04-03T07:01:53.985Z,99548.38
2019-04-03T07:04:20.239Z,99551.52
2019-04-03T07:06:46.565Z,99534.38
2019-04-03T07:09:22.722Z,99529.51
2019-04-03T07:11:43.301Z,99539.19
2019-04-03T07:14:09.401Z,99539.36
2019-04-03T07:16:38.072Z,99546.10
2019-04-03T07:19:04.061Z,99550.34
2019-04-03T07:21:30.242Z,99541.05
2019-04-03T07:23:56.573Z,99541.25
2019-04-03T07:26:22.828Z,99536.62
2019-04-03T07:28:49.425Z,99548.69
2019-04-03T07:31:15.781Z,99549.08
2019-04-03T07:33:43.005Z,99547.58
2019-04-03T07:36:11.565Z,99548.52
2019-04-03T07:38:38.370Z,99546.10
2019-04-03T07:41:04.691Z,99548.99
2019-04-03T07:43:30.889Z,99548.25
2019-04-03T07:45:57.359Z,99554.23
2019-04-03T07:48:23.585Z,99555.09
2019-04-03T07:50:49.869Z,99550.65
2019-04-03T07:53:16.121Z,99552.61
2019-04-03T07:55:44.195Z,99550.31
2019-04-03T07:58:10.900Z,99546.62
2019-04-03T08:00:38.540Z,99546.35
2019-04-03T08:03:05.561Z,99551.28
2019-04-03T08:05:32.093Z,99546.17
2019-04-03T08:07:58.288Z,99541.69
2019-04-03T08:10:24.551Z,99541.34
2019-04-03T08:12:50.868Z,99540.20
2019-04-03T08:15:18.212Z,99539.91
2019-04-03T08:17:44.526Z,99538.05
2019-04-03T08:20:11.033Z,99545.27
2019-04-03T08:22:37.389Z,99545.27
2019-04-03T08:25:05.541Z,99551.95
2019-04-03T08:27:31.758Z,99549.41
2019-04-03T08:29:58.204Z,99552.50
2019-04-03T08:32:24.422Z,99553.39
2019-04-03T08:34:50.652Z,99558.63
2019-04-03T08:37:28.402Z,99550.44
2019-04-03T08:39:45.189Z,99553.56
2019-04-03T08:42:11.571Z,99553.51
2019-04-03T08:44:37.878Z,99558.59
2019-04-03T08:47:04.272Z,99557.05
2019-04-03T08:49:30.511Z,99565.39
2019-04-03T08:51:56.828Z,99558.89
2019-04-03T08:54:23.074Z,99556.23
2019-04-03T08:56:49.480Z,99555.22
2019-04-03T08:59:17.297Z,99552.13
2019-04-03T09:01:43.679Z,99547.47
2019-04-03T09:04:09.763Z,99551.14
2019-04-03T09:06:36.287Z,99554.34
2019-04-03T09:09:06.254Z,99558.70
2019-04-03T09:11:34.089Z,99564.45
2019-04-03T09:14:00.793Z,99563.22
2019-04-03T09:16:28.782Z,99564.05
2019-04-03T09:18:55.882Z,99562.14
2019-04-03T09:21:22.198Z,99562.06
2019-04-03T09:23:48.824Z,99558.68
2019-04-03T09:26:15.389Z,99551.98
2019-04-03T09:28:42.432Z,99545.92
2019-04-03T09:31:09.323Z,99547.22
2019-04-03T09:33:35.899Z,99546.78
2019-04-03T09:36:04.397Z,99552.13
2019-04-03T09:38:30.316Z,99553.91
2019-04-03T09:40:56.738Z,99549.73
2019-04-03T09:43:23.261Z,99535.11
2019-04-03T09:45:49.538Z,99536.79
2019-04-03T09:48:15.663Z,99554.71
2019-04-03T09:50:42.190Z,99560.40
2019-04-03T09:53:08.496Z,99548.20
2019-04-03T09:55:36.943Z,99526.39
2019-04-03T09:58:04.210Z,99533.59
2019-04-03T10:00:30.788Z,99539.72
2019-04-03T10:02:56.820Z,99531.53
2019-04-03T10:05:24.174Z,99531.83
2019-04-03T10:07:50.478Z,99538.09
2019-04-03T10:10:17.096Z,99533.39
2019-04-03T10:12:47.332Z,99535.55
2019-04-03T10:15:11.892Z,99537.92
2019-04-03T10:17:38.526Z,99536.34
2019-04-03T10:20:06.787Z,99535.45
2019-04-03T10:22:32.967Z,99539.30
2019-04-03T10:25:00.557Z,99533.45
2019-04-03T10:27:27.072Z,99530.13
2019-04-03T10:29:55.687Z,99529.50
2019-04-03T10:32:21.498Z,99531.40
2019-04-03T10:34:47.964Z,99527.40
2019-04-03T10:37:15.139Z,99528.56
2019-04-03T10:39:44.250Z,99529.80
2019-04-03T10:42:10.184Z,99532.43
2019-04-03T10:44:36.421Z,99535.83
2019-04-03T10:47:02.744Z,99533.80
2019-04-03T10:49:32.060Z,99538.16
2019-04-03T10:51:58.425Z,99542.19
2019-04-03T10:54:25.364Z,99544.05
2019-04-03T10:56:52.286Z,99548.45
2019-04-03T10:59:19.216Z,99544.27
2019-04-03T11:01:45.657Z,99558.05
2019-04-03T11:04:12.156Z,99552.37
2019-04-03T11:06:38.451Z,99553.88
2019-04-03T11:09:07.730Z,99554.97
2019-04-03T11:11:37.021Z,99551.37
2019-04-03T11:14:06.689Z,99551.29
2019-04-03T11:16:32.660Z,99552.02
2019-04-03T11:19:04.520Z,99553.98
2019-04-03T11:21:26.915Z,99558.86
2019-04-03T11:23:53.696Z,99560.93
2019-04-03T11:26:24.338Z,99561.10
2019-04-03T11:28:49.933Z,99566.98
2019-04-03T11:31:25.932Z,99580.72
2019-04-03T11:33:46.005Z,99592.80
2019-04-03T11:36:12.706Z,99598.45
2019-04-03T11:38:39.205Z,99585.44
2019-04-03T11:41:12.809Z,99583.17
2019-04-03T11:43:33.566Z,99578.59
2019-04-03T11:46:00.304Z,99584.83
2019-04-03T11:48:27.812Z,99573.27
2019-04-03T11:50:57.055Z,99572.84
2019-04-03T11:53:22.146Z,99569.44
2019-04-03T11:55:48.736Z,99566.73
2019-04-03T11:58:15.089Z,99561.66
2019-04-03T12:00:43.292Z,99564.53
2019-04-03T12:03:11.347Z,99561.13
2019-04-03T12:05:37.730Z,99561.99
2019-04-03T12:08:03.979Z,99557.10
2019-04-03T12:10:30.279Z,99556.72
2019-04-03T12:12:56.597Z,99549.36
2019-04-03T12:15:22.904Z,99535.25
2019-04-03T12:17:49.748Z,99542.72
2019-04-03T12:20:16.580Z,99538.56
2019-04-03T12:22:43.195Z,99533.63
2019-04-03T12:25:09.482Z,99534.87
2019-04-03T12:27:36.639Z,99521.62
2019-04-03T12:30:07.942Z,99498.69
2019-04-03T12:32:38.449Z,99503.00
2019-04-03T12:35:04.829Z,99508.58
2019-04-03T12:37:31.352Z,99505.13
2019-04-03T12:39:58.225Z,99513.42
2019-04-03T12:42:25.802Z,99518.05
2019-04-03T12:44:54.727Z,99511.17
2019-04-03T12:47:20.441Z,99508.06
2019-04-03T12:49:46.975Z,99502.00
2019-04-03T12:52:13.348Z,99490.39
2019-04-03T12:54:39.671Z,99485.33
2019-04-03T12:57:06.016Z,99488.21
2019-04-03T12:59:32.191Z,99496.03
2019-04-03T13:01:58.550Z,99493.71
2019-04-03T13:04:25.821Z,99486.45
2019-04-03T13:06:52.716Z,99485.95
2019-04-03T13:09:19.501Z,99495.42
2019-04-03T13:11:45.807Z,99484.63
2019-04-03T13:14:22.648Z,99499.27
2019-04-03T13:16:41.786Z,99492.16
2019-04-03T13:19:08.441Z,99482.46
2019-04-03T13:21:34.986Z,99486.22
2019-04-03T13:24:01.278Z,99477.66
2019-04-03T13:26:27.745Z,99468.26
2019-04-03T13:28:54.466Z,99454.00
2019-04-03T13:31:20.955Z,99439.82
2019-04-03T13:33:47.167Z,99437.79
2019-04-03T13:36:13.713Z,99429.66
2019-04-03T13:38:40.218Z,99428.98
2019-04-03T13:41:07.950Z,99432.13
2019-04-03T13:43:34.753Z,99429.81
2019-04-03T13:46:03.856Z,99421.15
2019-04-03T13:48:29.225Z,99421.72
2019-04-03T13:50:56.420Z,99435.22
2019-04-03T13:53:25.055Z,99444.75
2019-04-03T13:55:51.160Z,99429.75
2019-04-03T13:58:20.589Z,99403.20
2019-04-03T14:00:57.834Z,99387.64
2019-04-03T14:03:15.871Z,99397.39
2019-04-03T14:05:43.956Z,99391.58
2019-04-03T14:08:12.239Z,99405.32
2019-04-03T14:10:38.823Z,99398.59
2019-04-03T14:13:05.072Z,99407.45
2019-04-03T14:15:31.256Z,99399.52
2019-04-03T14:17:59.184Z,99392.70
2019-04-03T14:20:25.967Z,99409.53
2019-04-03T14:22:52.312Z,99424.25
2019-04-03T14:25:22.165Z,99411.88
2019-04-03T14:27:46.802Z,99407.56
2019-04-03T14:30:13.241Z,99392.72
2019-04-03T14:32:40.044Z,99385.22
2019-04-03T14:35:35.162Z,99387.97
2019-04-03T14:37:35.186Z,99372.46
2019-04-03T14:40:01.582Z,99366.74
2019-04-03T14:42:28.418Z,99368.34
2019-04-03T14:44:54.853Z,99377.03
2019-04-03T14:47:22.758Z,99385.02
2019-04-03T14:49:49.082Z,99387.64
2019-04-03T14:52:17.671Z,99398.81
2019-04-03T14:54:43.935Z,99391.14
2019-04-03T14:57:20.020Z,99392.72
2019-04-03T14:59:38.524Z,99386.40
2019-04-03T15:02:04.840Z,99381.69
2019-04-03T15:04:36.127Z,99385.02
2019-04-03T15:07:03.533Z,99383.37
2019-04-03T15:09:28.738Z,99394.42
2019-04-03T15:11:54.878Z,99394.61
2019-04-03T15:14:22.177Z,99391.22
2019-04-03T15:16:49.219Z,99394.36
2019-04-03T15:19:15.562Z,99365.54
2019-04-03T15:21:42.062Z,99348.45
2019-04-03T15:24:08.954Z,99344.29
2019-04-03T15:26:36.512Z,99340.84
2019-04-03T15:29:03.625Z,99342.00
2019-04-03T15:31:30.180Z,99353.22
2019-04-03T15:33:56.754Z,99349.48
2019-04-03T15:36:23.027Z,99344.98
2019-04-03T15:38:49.921Z,99342.62
2019-04-03T15:41:16.211Z,99340.17
2019-04-03T15:43:45.596Z,99337.65
2019-04-03T15:46:10.946Z,99340.76
2019-04-03T15:48:39.890Z,99346.52
2019-04-03T15:51:07.175Z,99346.59
2019-04-03T15:53:33.723Z,99347.27
2019-04-03T15:56:00.353Z,99334.05
2019-04-03T15:58:27.299Z,99326.38
2019-04-03T16:00:53.962Z,99331.56
2019-04-03T16:03:20.777Z,99345.15
2019-04-03T16:05:47.222Z,99350.03
2019-04-03T16:08:14.044Z,99351.28
2019-04-03T16:10:40.686Z,99362.48
2019-04-03T16:13:07.014Z,99369.67
2019-04-03T16:15:33.540Z,99379.83
2019-04-03T16:18:00.007Z,99386.18
2019-04-03T16:20:26.513Z,99384.47
2019-04-03T16:22:52.863Z,99392.92
2019-04-03T16:25:22.230Z,99393.73
2019-04-03T16:27:48.800Z,99396.84
2019-04-03T16:30:17.322Z,99387.38
2019-04-03T16:32:43.615Z,99376.63
2019-04-03T16:35:12.714Z,99376.24
2019-04-03T16:37:38.465Z,99371.58
2019-04-03T16:40:06.710Z,99381.06
2019-04-03T16:42:33.248Z,99386.61
2019-04-03T16:45:03.135Z,99386.08
2019-04-03T16:47:28.020Z,99377.95
2019-04-03T16:49:55.915Z,99371.70
2019-04-03T16:52:22.531Z,99369.14
2019-04-03T16:54:48.790Z,99363.02
2019-04-03T16:57:15.287Z,99345.68
2019-04-03T16:59:41.754Z,99346.49
2019-04-03T17:02:08.167Z,99347.41
2019-04-03T17:04:35.594Z,99338.87
2019-04-03T17:07:03.323Z,99336.25
2019-04-03T17:09:32.558Z,99340.63
2019-04-03T17:11:58.251Z,99351.48
2019-04-03T17:14:25.116Z,99353.63
2019-04-03T17:16:51.928Z,99340.54
2019-04-03T17:19:18.901Z,99341.00
2019-04-03T17:21:45.295Z,99350.11
2019-04-03T17:24:11.858Z,99343.16
2019-04-03T17:26:47.859Z,99345.86
2019-04-03T17:29:06.832Z,99334.57
2019-04-03T17:31:33.323Z,99332.36
2019-04-03T17:33:59.631Z,99329.31
2019-04-03T17:36:25.855Z,99332.77
2019-04-03T17:38:52.203Z,99325.35
2019-04-03T17:41:18.300Z,99314.53
2019-04-03T17:43:44.684Z,99311.94
2019-04-03T17:46:11.025Z,99310.59
2019-04-03T17:48:37.264Z,99317.88
2019-04-03T17:51:03.616Z,99316.25
2019-04-03T17:53:30.107Z,99312.70
2019-04-03T17:55:56.336Z,99310.03
2019-04-03T17:58:22.587Z,99309.87
2019-04-03T18:00:51.677Z,99307.24
2019-04-03T18:03:19.366Z,99298.51
2019-04-03T18:05:45.080Z,99286.37
2019-04-03T18:08:11.417Z,99276.02
2019-04-03T18:10:37.662Z,99276.81
2019-04-03T18:13:04.020Z,99274.23
2019-04-03T18:15:32.920Z,99265.34
2019-04-03T18:18:02.557Z,99285.72
2019-04-03T18:20:27.561Z,99310.44
2019-04-03T18:22:53.823Z,99300.92
2019-04-03T18:25:20.177Z,99290.63
2019-04-03T18:27:47.546Z,99289.59
2019-04-03T18:30:14.267Z,99294.81
2019-04-03T18:32:40.600Z,99309.58
2019-04-03T18:35:07.504Z,99303.45
2019-04-03T18:37:34.405Z,99297.95
2019-04-03T18:40:01.047Z,99310.53
2019-04-03T18:42:27.210Z,99328.70
2019-04-03T18:44:53.323Z,99349.84
2019-04-03T18:47:19.548Z,99355.36
2019-04-03T18:49:45.659Z,99351.83
2019-04-03T18:52:11.847Z,99344.36
2019-04-03T18:54:38.064Z,99363.14
2019-04-03T18:57:04.411Z,99369.50
2019-04-03T18:59:30.663Z,99354.50
2019-04-03T19:01:57.120Z,99346.91
2019-04-03T19:04:23.333Z,99358.94
2019-04-03T19:06:49.693Z,99347.70
2019-04-03T19:09:16.014Z,99318.75
2019-04-03T19:11:42.258Z,99327.43
2019-04-03T19:14:08.616Z,99345.62
2019-04-03T19:16:45.052Z,99356.73
2019-04-03T19:19:08.083Z,99372.09
2019-04-03T19:21:32.616Z,99370.63
2019-04-03T19:23:58.941Z,99375.04
2019-04-03T19:26:25.356Z,99384.89
2019-04-03T19:28:51.551Z,99377.03
2019-04-03T19:31:18.065Z,99391.71
2019-04-03T19:33:45.395Z,99406.25
2019-04-03T19:36:12.006Z,99421.69
2019-04-03T19:38:38.224Z,99434.31
2019-04-03T19:41:04.647Z,99448.50
2019-04-03T19:43:30.974Z,99442.52
2019-04-03T19:45:57.193Z,99442.41
2019-04-03T19:48:23.851Z,99403.52
2019-04-03T19:50:52.035Z,99385.62
2019-04-03T19:53:18.344Z,99377.03
2019-04-03T19:55:44.591Z,99383.41
2019-04-03T19:58:10.857Z,99393.06
2019-04-03T20:00:37.297Z,99391.48
2019-04-03T20:03:03.544Z,99395.16
2019-04-03T20:05:29.901Z,99417.84
2019-04-03T20:07:58.606Z,99407.95
2019-04-03T20:10:24.598Z,99395.11
2019-04-03T20:12:51.144Z,99388.64
2019-04-03T20:15:17.485Z,99385.75
2019-04-03T20:17:44.626Z,99404.88
2019-04-03T20:20:11.044Z,99428.98
2019-04-03T20:22:38.294Z,99425.74
2019-04-03T20:25:06.068Z,99414.81
2019-04-03T20:27:32.480Z,99410.75
2019-04-03T20:30:00.611Z,99413.11
2019-04-03T20:32:26.867Z,99408.98
2019-04-03T20:34:53.107Z,99404.27
2019-04-03T20:37:19.407Z,99405.47
2019-04-03T20:39:45.573Z,99409.80
2019-04-03T20:42:11.793Z,99413.34
2019-04-03T20:44:39.067Z,99393.30
2019-04-03T20:47:05.396Z,99376.94
2019-04-03T20:49:31.619Z,99370.89
2019-04-03T20:51:57.841Z,99395.22
2019-04-03T20:54:24.061Z,99424.61
2019-04-03T20:56:57.612Z,99412.16
2019-04-03T20:59:18.529Z,99418.80
2019-04-03T21:01:44.749Z,99424.13
2019-04-03T21:04:11.054Z,99413.47
2019-04-03T21:06:37.639Z,99406.30
2019-04-03T21:09:05.741Z,99398.84
2019-04-03T21:11:34.547Z,99402.30
2019-04-03T21:14:00.938Z,99413.62
2019-04-03T21:16:33.142Z,99411.85
2019-04-03T21:18:55.201Z,99412.65
2019-04-03T21:21:21.535Z,99420.34
2019-04-03T21:23:47.627Z,99413.79
2019-04-03T21:26:13.805Z,99394.70
2019-04-03T21:28:41.022Z,99388.49
2019-04-03T21:31:08.550Z,99389.08
2019-04-03T21:33:34.770Z,99388.22
2019-04-03T21:36:01.266Z,99395.02
2019-04-03T21:38:27.488Z,99380.97
2019-04-03T21:40:55.717Z,99389.84
2019-04-03T21:43:21.863Z,99399.70
2019-04-03T21:45:48.105Z,99397.06
2019-04-03T21:48:14.371Z,99398.20
2019-04-03T21:50:40.523Z,99384.61
2019-04-03T21:53:06.625Z,99376.21
2019-04-03T21:55:34.694Z,99378.63
2019-04-03T21:58:00.826Z,99354.69
2019-04-03T22:00:58.553Z,99338.47
2019-04-03T22:03:24.789Z,99310.47
2019-04-03T22:05:50.858Z,99300.78
2019-04-03T22:08:17.192Z,99334.76
2019-04-03T22:10:43.387Z,99355.84
2019-04-03T22:13:09.585Z,99377.39
2019-04-03T22:15:37.038Z,99369.48
2019-04-03T22:18:03.453Z,99349.65
2019-04-03T22:20:30.119Z,99345.87
2019-04-03T22:22:56.498Z,99357.45
2019-04-03T22:25:22.707Z,99358.95
2019-04-03T22:27:48.922Z,99356.42
2019-04-03T22:30:15.134Z,99371.62
2019-04-03T22:32:41.418Z,99403.94
2019-04-03T22:35:07.737Z,99412.06
2019-04-03T22:37:35.182Z,99422.67
2019-04-03T22:40:04.484Z,99418.73
2019-04-03T22:42:30.693Z,99414.10
2019-04-03T22:44:56.810Z,99410.02
2019-04-03T22:47:25.012Z,99411.41
2019-04-03T22:49:51.018Z,99412.06
2019-04-03T22:52:17.160Z,99407.64
2019-04-03T22:54:43.973Z,99372.39
2019-04-03T22:57:10.703Z,99371.57
2019-04-03T22:59:36.818Z,99379.98
2019-04-03T23:02:03.099Z,99380.90
2019-04-03T23:04:29.316Z,99369.05
2019-04-03T23:06:55.552Z,99357.66
2019-04-03T23:09:24.739Z,99336.16
2019-04-03T23:11:49.659Z,99338.80
2019-04-03T23:14:17.032Z,99336.11
2019-04-03T23:16:43.335Z,99346.03
2019-04-03T23:19:09.544Z,99357.05
2019-04-03T23:21:35.693Z,99352.84
2019-04-03T23:24:02.074Z,99361.61
2019-04-03T23:26:28.170Z,99367.97
2019-04-03T23:28:54.284Z,99394.22
2019-04-03T23:31:20.596Z,99399.56
2019-04-03T23:33:47.796Z,99391.41
2019-04-03T23:36:14.482Z,99375.52
2019-04-03T23:38:40.605Z,99370.88
2019-04-03T23:41:06.842Z,99358.17
2019-04-03T23:43:32.980Z,99369.91
2019-04-03T23:45:59.121Z,99377.67
2019-04-03T23:48:25.300Z,99377.07
2019-04-03T23:50:52.679Z,99382.84
2019-04-03T23:53:19.423Z,99383.72
2019-04-03T23:55:45.618Z,99379.45
2019-04-03T23:58:11.798Z,99368.41
